createdAt,value
2019-05-23T00:02:56.678Z,19.10
2019-05-23T00:05:53.175Z,19.00
2019-05-23T00:14:33.871Z,18.90
2019-05-23T00:17:05.375Z,18.70
2019-05-23T00:19:36.888Z,18.70
2019-05-23T00:22:09.225Z,18.60
2019-05-23T00:24:42.522Z,18.50
2019-05-23T00:27:14.589Z,18.50
2019-05-23T00:29:48.350Z,18.50
2019-05-23T00:32:26.487Z,18.50
2019-05-23T01:13:54.549Z,18.50
2019-05-23T01:16:25.337Z,18.10
2019-05-23T01:18:56.402Z,18.20
2019-05-23T01:21:55.191Z,18.20
2019-05-23T01:24:32.000Z,18.20
2019-05-23T01:27:04.821Z,18.30
2019-05-23T01:29:50.166Z,18.40
2019-05-23T01:32:34.061Z,18.50
2019-05-23T01:35:07.357Z,18.50
2019-05-23T01:37:37.917Z,18.40
2019-05-23T01:40:10.314Z,18.20
2019-05-23T01:42:42.305Z,18.00
2019-05-23T01:45:15.254Z,17.90
2019-05-23T01:47:47.802Z,17.80
2019-05-23T01:50:22.617Z,17.80
2019-05-23T01:52:54.289Z,17.80
2019-05-23T01:55:24.998Z,17.90
2019-05-23T01:57:55.903Z,18.00
2019-05-23T02:00:31.341Z,17.90
2019-05-23T02:03:02.090Z,17.90
2019-05-23T02:05:34.070Z,17.80
2019-05-23T02:08:05.148Z,17.70
2019-05-23T02:10:36.951Z,17.70
2019-05-23T02:13:08.874Z,17.80
2019-05-23T02:15:40.124Z,17.90
2019-05-23T02:18:11.647Z,17.90
2019-05-23T02:20:42.568Z,18.00
2019-05-23T02:23:15.020Z,18.20
2019-05-23T02:25:46.218Z,18.30
2019-05-23T02:28:17.667Z,18.50
2019-05-23T02:30:48.393Z,18.50
2019-05-23T02:33:19.786Z,18.70
2019-05-23T02:35:50.313Z,18.60
2019-05-23T02:38:52.372Z,18.40
2019-05-23T02:41:58.579Z,18.40
2019-05-23T02:44:31.860Z,18.90
2019-05-23T02:47:21.764Z,19.40
2019-05-23T02:49:54.504Z,19.90
2019-05-23T02:52:50.846Z,20.00
2019-05-23T02:55:28.035Z,20.10
2019-05-23T02:58:05.403Z,20.30
2019-05-23T03:00:54.914Z,20.40
2019-05-23T03:03:27.698Z,20.60
2019-05-23T03:06:01.031Z,21.10
2019-05-23T03:08:32.341Z,21.20
2019-05-23T03:11:13.370Z,21.20
2019-05-23T03:13:44.706Z,21.20
2019-05-23T03:16:19.441Z,21.30
2019-05-23T03:18:56.034Z,21.80
2019-05-23T03:21:28.675Z,22.00
2019-05-23T03:24:01.718Z,22.20
2019-05-23T03:27:03.094Z,22.50
2019-05-23T03:29:35.705Z,22.80
2019-05-23T03:32:24.106Z,23.30
2019-05-23T03:35:05.483Z,23.40
2019-05-23T03:37:35.985Z,23.50
2019-05-23T03:40:10.469Z,23.70
2019-05-23T03:42:41.585Z,23.60
2019-05-23T03:45:17.170Z,23.50
2019-05-23T03:47:49.187Z,23.80
2019-05-23T03:50:21.807Z,24.20
2019-05-23T03:52:52.491Z,24.90
2019-05-23T03:55:25.077Z,25.90
2019-05-23T03:57:56.195Z,26.00
2019-05-23T04:00:30.056Z,26.00
2019-05-23T04:03:02.687Z,26.10
2019-05-23T04:05:34.720Z,25.60
2019-05-23T04:08:06.120Z,25.60
2019-05-23T04:10:37.490Z,26.20
2019-05-23T04:13:08.870Z,27.30
2019-05-23T04:15:39.618Z,27.40
2019-05-23T04:18:10.258Z,27.20
2019-05-23T04:20:41.685Z,28.20
2019-05-23T04:45:47.143Z,28.00
2019-05-23T04:48:21.071Z,23.00
2019-05-23T04:53:23.473Z,22.40
2019-05-23T04:55:54.057Z,22.30
2019-05-23T04:58:26.179Z,22.70
2019-05-23T05:00:57.918Z,23.10
2019-05-23T05:03:28.933Z,24.70
2019-05-23T05:06:00.783Z,26.70
2019-05-23T05:08:31.435Z,28.20
2019-05-23T05:11:02.137Z,29.20
2019-05-23T05:13:32.782Z,29.60
2019-05-23T05:16:03.448Z,30.50
2019-05-23T05:18:34.364Z,31.50
2019-05-23T05:21:05.046Z,31.50
2019-05-23T05:26:07.869Z,30.90
2019-05-23T05:33:39.420Z,31.00
2019-05-23T06:06:19.795Z,30.40
2019-05-23T06:08:52.788Z,24.20
2019-05-23T06:11:23.582Z,25.00
2019-05-23T06:13:54.597Z,25.20
2019-05-23T06:16:25.452Z,26.00
2019-05-23T06:18:56.208Z,28.10
2019-05-23T06:21:28.878Z,29.00
2019-05-23T06:23:59.625Z,28.20
2019-05-23T06:26:31.331Z,28.20
2019-05-23T06:29:02.011Z,27.30
2019-05-23T06:31:33.736Z,28.10
2019-05-23T06:34:04.987Z,28.70
2019-05-23T06:46:40.811Z,28.00
2019-05-23T06:51:42.192Z,26.50
2019-05-23T06:54:13.325Z,26.60
2019-05-23T06:56:46.575Z,26.90
2019-05-23T06:59:17.411Z,26.80
2019-05-23T07:01:48.060Z,26.80
2019-05-23T07:04:19.434Z,25.80
2019-05-23T07:06:51.966Z,25.30
2019-05-23T07:09:22.617Z,26.40
2019-05-23T07:11:57.256Z,27.10
2019-05-23T07:14:30.294Z,26.40
2019-05-23T07:17:01.393Z,25.90
2019-05-23T07:22:01.905Z,27.20
2019-05-23T07:24:32.556Z,30.20
2019-05-23T07:27:03.680Z,31.80
2019-05-23T07:29:35.742Z,31.00
2019-05-23T07:32:08.304Z,30.50
2019-05-23T07:34:38.973Z,29.50
2019-05-23T07:37:09.908Z,29.50
2019-05-23T07:39:40.793Z,29.60
2019-05-23T07:52:16.991Z,30.50
2019-05-23T08:37:47.123Z,28.90
2019-05-23T10:36:01.368Z,29.70
2019-05-23T10:38:32.230Z,28.90
2019-05-23T10:53:37.064Z,28.70
2019-05-23T15:15:43.512Z,27.50
2019-05-23T16:19:44.178Z,22.00
2019-05-23T16:22:15.213Z,21.50
2019-05-23T16:24:46.672Z,21.20
2019-05-23T16:27:17.695Z,21.10
2019-05-23T16:29:48.731Z,20.70
2019-05-23T16:32:19.665Z,20.50
2019-05-23T16:34:51.197Z,20.60
2019-05-23T16:37:22.439Z,20.40
2019-05-23T16:39:54.467Z,20.30
2019-05-23T16:42:27.589Z,20.20
2019-05-23T16:44:58.388Z,20.40
2019-05-23T16:47:30.275Z,20.30
2019-05-23T16:50:02.029Z,20.20
2019-05-23T16:52:33.128Z,20.30
2019-05-23T16:57:52.025Z,20.80
2019-05-23T17:00:41.361Z,20.60
2019-05-23T17:03:27.665Z,20.60
2019-05-23T17:06:12.302Z,20.40
2019-05-23T17:09:05.370Z,20.30
2019-05-23T17:11:47.912Z,20.50
2019-05-23T17:14:38.016Z,20.40
2019-05-23T17:17:56.833Z,20.10
2019-05-23T17:20:19.719Z,19.70
2019-05-23T17:22:57.308Z,19.70
2019-05-23T17:25:44.112Z,19.60
2019-05-23T17:28:19.117Z,19.60
2019-05-23T17:30:59.271Z,19.90
2019-05-23T17:33:30.856Z,20.20
2019-05-23T17:36:06.075Z,20.10
2019-05-23T17:38:38.414Z,19.90
2019-05-23T17:41:10.974Z,19.60
2019-05-23T17:43:42.617Z,19.50
2019-05-23T17:46:16.161Z,19.30
2019-05-23T17:48:49.220Z,19.10
2019-05-23T17:51:20.933Z,18.80
2019-05-23T17:53:52.087Z,18.80
2019-05-23T17:56:22.822Z,18.70
2019-05-23T17:58:53.692Z,18.60
2019-05-23T18:01:25.372Z,18.50
2019-05-23T18:03:58.213Z,18.60
2019-05-23T18:06:29.985Z,18.60
2019-05-23T18:09:03.383Z,18.60
2019-05-23T18:11:35.418Z,18.50
2019-05-23T18:14:07.665Z,18.50
2019-05-23T18:16:38.471Z,18.40
2019-05-23T18:19:09.916Z,18.30
2019-05-23T18:21:40.699Z,18.10
2019-05-23T18:24:13.185Z,18.20
2019-05-23T18:26:44.162Z,18.10
2019-05-23T18:29:15.345Z,18.10
2019-05-23T18:31:48.370Z,18.10
2019-05-23T18:34:19.837Z,18.10
2019-05-23T18:36:52.340Z,18.00
2019-05-23T18:39:24.672Z,18.00
2019-05-23T18:41:56.106Z,17.90
2019-05-23T18:44:27.234Z,17.80
2019-05-23T18:47:00.385Z,17.60
2019-05-23T18:49:33.704Z,17.60
2019-05-23T18:52:04.770Z,17.90
2019-05-23T18:54:35.988Z,17.80
2019-05-23T18:57:06.647Z,17.60
2019-05-23T18:59:37.912Z,17.50
2019-05-23T19:02:09.131Z,17.40
2019-05-23T19:04:39.857Z,17.40
2019-05-23T19:07:11.853Z,17.40
2019-05-23T19:09:44.254Z,17.70
2019-05-23T19:12:16.043Z,17.90
2019-05-23T19:14:47.107Z,18.10
2019-05-23T19:17:19.254Z,17.80
2019-05-23T19:19:50.514Z,17.60
2019-05-23T19:22:22.481Z,17.40
2019-05-23T19:24:56.584Z,17.40
2019-05-23T19:27:27.977Z,17.40
2019-05-23T19:29:58.675Z,17.70
2019-05-23T19:32:31.189Z,17.70
2019-05-23T19:35:02.357Z,17.50
2019-05-23T19:37:34.892Z,17.60
2019-05-23T19:40:09.583Z,17.90
2019-05-23T19:42:41.268Z,18.10
2019-05-23T19:45:12.043Z,18.40
2019-05-23T19:47:43.470Z,18.40
2019-05-23T19:50:14.475Z,18.60
2019-05-23T19:52:46.038Z,18.70
2019-05-23T19:55:17.064Z,19.00
2019-05-23T19:57:48.167Z,19.20
2019-05-23T20:00:21.507Z,19.30
2019-05-23T20:02:55.407Z,19.40
2019-05-23T20:05:30.475Z,19.40
2019-05-23T20:13:03.100Z,19.40
2019-05-23T20:20:41.319Z,19.40
2019-05-23T20:23:16.335Z,19.40
2019-05-23T20:25:47.246Z,19.30
2019-05-23T20:28:18.269Z,19.30
2019-05-23T20:30:54.095Z,19.10
2019-05-23T20:33:25.297Z,19.10
2019-05-23T20:35:56.488Z,19.10
2019-05-23T20:38:28.340Z,19.00
2019-05-23T20:41:00.079Z,18.90
2019-05-23T20:43:31.286Z,18.90
2019-05-23T20:46:02.969Z,19.00
2019-05-23T20:48:35.149Z,19.10
2019-05-23T20:51:06.254Z,19.10
2019-05-23T20:58:40.329Z,19.10
2019-05-23T21:01:17.928Z,19.30
2019-05-23T21:03:49.281Z,19.20
2019-05-23T21:06:21.648Z,19.00
2019-05-23T21:09:17.832Z,18.90
2019-05-23T21:11:56.643Z,18.90
2019-05-23T21:14:57.929Z,19.00
2019-05-23T21:21:11.242Z,18.90
2019-05-23T21:23:41.969Z,18.50
2019-05-23T21:26:12.634Z,18.40
2019-05-23T21:28:43.284Z,18.60
2019-05-23T21:31:20.657Z,18.80
2019-05-23T21:33:51.273Z,18.90
2019-05-23T21:36:23.448Z,19.10
2019-05-23T21:38:54.300Z,19.00
2019-05-23T21:41:26.020Z,18.50
2019-05-23T21:43:58.382Z,17.80
2019-05-23T21:46:29.212Z,17.50
2019-05-23T21:48:59.806Z,17.20
2019-05-23T21:51:30.378Z,16.90
2019-05-23T21:54:01.020Z,16.80
2019-05-23T21:56:31.805Z,16.70
2019-05-23T21:59:02.370Z,16.70
2019-05-23T22:01:52.218Z,16.80
2019-05-23T22:07:07.078Z,16.80
2019-05-23T22:09:38.837Z,16.40
2019-05-23T22:12:13.353Z,16.20
2019-05-23T22:14:44.421Z,16.10
2019-05-23T22:17:16.291Z,16.10
2019-05-23T22:19:47.010Z,16.10
2019-05-23T22:22:18.092Z,16.10
2019-05-23T22:24:48.742Z,16.10
2019-05-23T22:27:20.000Z,16.50
2019-05-23T22:29:50.677Z,16.30
2019-05-23T22:32:23.649Z,16.30
2019-05-23T22:35:08.728Z,16.20
2019-05-23T22:37:39.435Z,15.90
2019-05-23T22:40:10.455Z,15.70
2019-05-23T22:42:41.493Z,15.60
2019-05-23T22:45:15.243Z,15.40
2019-05-23T22:47:45.855Z,15.30
2019-05-23T22:50:17.318Z,15.30
2019-05-23T22:52:48.060Z,15.40
2019-05-23T22:55:18.604Z,15.40
2019-05-23T22:57:49.264Z,15.50
2019-05-23T23:00:27.331Z,15.40
2019-05-23T23:02:58.087Z,15.50
2019-05-23T23:05:28.836Z,15.60
2019-05-23T23:07:59.557Z,15.50
2019-05-23T23:10:30.167Z,15.60
2019-05-23T23:13:00.882Z,15.60
2019-05-23T23:15:32.291Z,15.60
2019-05-23T23:18:02.849Z,15.60
2019-05-23T23:20:34.608Z,15.60
2019-05-23T23:23:05.495Z,15.40
2019-05-23T23:25:36.144Z,15.40
2019-05-23T23:28:06.721Z,15.40
2019-05-23T23:30:38.871Z,15.50
2019-05-23T23:33:09.421Z,15.40
2019-05-23T23:35:40.238Z,15.30
2019-05-23T23:38:10.985Z,15.20
2019-05-23T23:40:41.531Z,15.20
2019-05-23T23:43:12.464Z,15.10
2019-05-23T23:46:00.702Z,15.10
2019-05-23T23:48:49.148Z,15.10
2019-05-23T23:51:37.616Z,15.40
2019-05-23T23:54:26.112Z,15.40
2019-05-23T23:57:14.462Z,15.60
